createdAt,value
2022-10-23T00:02:13.285Z,15.70
2022-10-23T00:04:40.963Z,14.77
2022-10-23T00:07:08.650Z,15.50
2022-10-23T00:09:37.707Z,15.60
2022-10-23T00:12:05.542Z,13.53
2022-10-23T00:14:33.259Z,15.77
2022-10-23T00:17:00.995Z,14.33
2022-10-23T00:19:28.720Z,16.90
2022-10-23T00:21:56.442Z,15.57
2022-10-23T00:24:24.130Z,17.27
2022-10-23T00:26:53.339Z,13.77
2022-10-23T00:29:21.055Z,17.27
2022-10-23T00:31:48.740Z,16.37
2022-10-23T00:34:16.487Z,23.50
2022-10-23T00:36:44.190Z,14.53
2022-10-23T00:39:11.900Z,15.67
2022-10-23T00:41:39.609Z,18.40
2022-10-23T00:44:12.084Z,16.27
2022-10-23T00:46:41.027Z,17.83
2022-10-23T00:49:10.467Z,17.13
2022-10-23T00:51:42.453Z,19.67
2022-10-23T00:54:23.372Z,14.57
2022-10-23T00:56:53.774Z,14.13
2022-10-23T00:59:22.933Z,13.17
2022-10-23T01:01:50.844Z,12.60
2022-10-23T01:04:18.991Z,15.97
2022-10-23T01:06:54.402Z,15.63
2022-10-23T01:09:30.110Z,14.80
2022-10-23T01:12:05.472Z,14.33
2022-10-23T01:14:40.618Z,17.73
2022-10-23T01:17:13.570Z,12.57
2022-10-23T01:19:52.226Z,16.77
2022-10-23T01:22:54.928Z,15.17
2022-10-23T01:25:30.706Z,21.20
2022-10-23T01:28:04.054Z,13.63
2022-10-23T01:30:34.739Z,17.27
2022-10-23T01:33:07.086Z,15.10
2022-10-23T01:35:38.174Z,13.83
2022-10-23T01:38:13.430Z,18.33
2022-10-23T01:40:48.248Z,16.53
2022-10-23T01:43:22.102Z,19.07
2022-10-23T01:45:54.123Z,15.73
2022-10-23T01:48:26.999Z,18.37
2022-10-23T01:50:57.584Z,16.67
2022-10-23T01:53:30.631Z,17.57
2022-10-23T01:56:00.136Z,18.30
2022-10-23T01:58:31.802Z,20.03
2022-10-23T02:01:04.226Z,17.77
2022-10-23T02:03:33.809Z,19.63
2022-10-23T02:06:01.573Z,18.23
2022-10-23T02:08:29.568Z,17.73
2022-10-23T02:11:05.891Z,18.63
2022-10-23T02:13:40.068Z,17.20
2022-10-23T02:16:17.582Z,16.30
2022-10-23T02:18:52.921Z,15.67
2022-10-23T02:21:30.555Z,17.67
2022-10-23T02:24:04.170Z,20.67
2022-10-23T02:26:39.474Z,18.13
2022-10-23T02:29:11.964Z,17.97
2022-10-23T02:31:39.801Z,18.50
2022-10-23T02:34:07.718Z,16.17
2022-10-23T02:36:35.501Z,21.80
2022-10-23T02:39:03.210Z,21.47
2022-10-23T02:41:40.405Z,23.77
2022-10-23T02:44:26.016Z,18.77
2022-10-23T02:47:01.648Z,21.07
2022-10-23T02:49:36.252Z,19.77
2022-10-23T02:52:10.037Z,22.53
2022-10-23T02:54:49.321Z,25.63
2022-10-23T02:57:24.552Z,21.30
2022-10-23T03:00:02.798Z,19.47
2022-10-23T03:02:36.595Z,22.33
2022-10-23T03:05:07.846Z,21.83
2022-10-23T03:07:36.081Z,19.90
2022-10-23T03:10:04.055Z,19.07
2022-10-23T03:12:31.759Z,24.70
2022-10-23T03:15:00.848Z,22.37
2022-10-23T03:17:28.600Z,22.83
2022-10-23T03:19:56.309Z,18.00
2022-10-23T03:22:24.029Z,26.07
2022-10-23T03:24:51.743Z,19.63
2022-10-23T03:27:19.514Z,20.77
2022-10-23T03:29:47.234Z,25.70
2022-10-23T03:32:16.286Z,21.83
2022-10-23T03:34:44.132Z,25.97
2022-10-23T03:37:11.916Z,27.83
2022-10-23T03:39:39.634Z,25.23
2022-10-23T03:42:07.429Z,29.40
2022-10-23T03:44:35.244Z,32.40
2022-10-23T03:47:02.957Z,26.33
2022-10-23T03:49:32.097Z,24.77
2022-10-23T03:51:59.781Z,32.20
2022-10-23T03:54:29.770Z,30.90
2022-10-23T03:56:57.980Z,31.83
2022-10-23T03:59:25.826Z,27.67
2022-10-23T04:01:53.671Z,34.33
2022-10-23T04:04:21.468Z,32.07
2022-10-23T04:06:50.505Z,31.00
2022-10-23T04:09:18.540Z,31.63
2022-10-23T04:11:46.209Z,34.87
2022-10-23T04:14:14.865Z,30.93
2022-10-23T04:16:42.757Z,33.50
2022-10-23T04:19:10.507Z,33.37
2022-10-23T04:21:38.315Z,31.53
2022-10-23T04:24:08.138Z,32.50
2022-10-23T04:26:35.935Z,31.10
2022-10-23T04:29:03.614Z,33.23
2022-10-23T04:31:31.298Z,39.60
2022-10-23T04:33:59.042Z,35.70
2022-10-23T04:36:26.892Z,112.93
2022-10-23T04:38:54.610Z,208.03
2022-10-23T04:41:23.893Z,157.60
2022-10-23T04:43:51.551Z,197.77
2022-10-23T04:46:19.656Z,220.90
2022-10-23T04:48:47.549Z,112.53
2022-10-23T04:51:15.803Z,113.00
2022-10-23T04:53:43.612Z,72.83
2022-10-23T04:56:14.976Z,54.73
2022-10-23T04:58:44.193Z,87.17
2022-10-23T05:01:12.482Z,158.37
2022-10-23T05:03:40.514Z,56.90
2022-10-23T05:06:08.451Z,62.27
2022-10-23T05:08:36.823Z,51.53
2022-10-23T05:11:04.713Z,77.40
2022-10-23T05:13:32.404Z,60.23
2022-10-23T05:16:01.456Z,63.93
2022-10-23T05:18:33.602Z,87.37
2022-10-23T05:21:06.488Z,85.93
2022-10-23T05:23:37.665Z,78.87
2022-10-23T05:26:06.136Z,156.07
2022-10-23T05:28:33.845Z,76.50
2022-10-23T05:31:06.348Z,50.77
2022-10-23T05:33:35.873Z,45.23
2022-10-23T05:36:04.921Z,48.47
2022-10-23T05:38:35.264Z,38.77
2022-10-23T05:41:03.254Z,63.07
2022-10-23T05:43:31.481Z,57.60
2022-10-23T05:45:59.819Z,93.20
2022-10-23T05:48:34.792Z,83.20
2022-10-23T05:51:06.954Z,85.23
2022-10-23T05:53:36.254Z,134.90
2022-10-23T05:56:07.623Z,92.73
2022-10-23T05:58:35.688Z,57.73
2022-10-23T06:01:07.156Z,52.30
2022-10-23T06:03:36.481Z,45.90
2022-10-23T06:06:04.318Z,74.87
2022-10-23T06:08:32.766Z,134.53
2022-10-23T06:11:06.711Z,59.10
2022-10-23T06:13:34.389Z,61.13
2022-10-23T06:16:09.925Z,45.53
2022-10-23T06:18:39.143Z,47.77
2022-10-23T06:21:07.255Z,42.27
2022-10-23T06:23:36.132Z,29.13
2022-10-23T06:26:04.743Z,74.77
2022-10-23T06:28:32.432Z,95.10
2022-10-23T06:31:00.154Z,57.23
2022-10-23T06:33:27.861Z,54.17
2022-10-23T06:35:58.322Z,69.40
2022-10-23T06:38:26.488Z,171.40
2022-10-23T06:40:54.467Z,47.20
2022-10-23T06:43:22.198Z,64.57
2022-10-23T06:45:50.144Z,68.97
2022-10-23T06:48:17.812Z,67.30
2022-10-23T06:50:45.499Z,42.67
2022-10-23T06:53:14.584Z,25.67
2022-10-23T06:55:42.286Z,85.57
2022-10-23T06:58:10.767Z,78.30
2022-10-23T07:00:39.346Z,56.47
2022-10-23T07:03:08.553Z,62.20
2022-10-23T07:05:36.253Z,39.60
2022-10-23T07:08:05.851Z,34.10
2022-10-23T07:10:35.502Z,44.43
2022-10-23T07:13:03.314Z,51.47
2022-10-23T07:15:31.234Z,45.97
2022-10-23T07:17:58.958Z,98.53
2022-10-23T07:20:26.761Z,43.70
2022-10-23T07:22:55.665Z,31.57
2022-10-23T07:25:24.464Z,61.63
2022-10-23T07:27:55.334Z,45.03
2022-10-23T07:30:24.247Z,36.93
2022-10-23T07:32:52.338Z,28.57
2022-10-23T07:35:20.242Z,40.57
2022-10-23T07:37:48.598Z,49.83
2022-10-23T07:40:17.260Z,55.30
2022-10-23T07:42:44.996Z,40.77
2022-10-23T07:45:14.221Z,57.00
2022-10-23T07:47:42.162Z,49.10
2022-10-23T07:50:10.762Z,48.03
2022-10-23T07:52:38.442Z,40.13
2022-10-23T07:55:06.766Z,56.40
2022-10-23T07:57:34.444Z,69.03
2022-10-23T08:00:02.172Z,46.70
2022-10-23T08:02:31.240Z,42.83
2022-10-23T08:04:59.365Z,40.80
2022-10-23T08:07:27.025Z,57.93
2022-10-23T08:09:54.741Z,31.90
2022-10-23T08:12:22.422Z,58.63
2022-10-23T08:14:50.144Z,81.63
2022-10-23T08:17:17.850Z,45.97
2022-10-23T08:19:48.433Z,56.53
2022-10-23T08:22:16.387Z,47.10
2022-10-23T08:24:44.238Z,37.23
2022-10-23T08:27:11.963Z,42.07
2022-10-23T08:29:39.658Z,35.80
2022-10-23T08:32:07.417Z,33.23
2022-10-23T08:34:37.797Z,47.73
2022-10-23T08:37:06.858Z,30.30
2022-10-23T08:39:34.573Z,27.67
2022-10-23T08:42:02.459Z,28.00
2022-10-23T08:44:34.476Z,21.50
2022-10-23T08:47:06.485Z,41.93
2022-10-23T08:49:41.044Z,20.07
2022-10-23T08:52:16.541Z,23.33
2022-10-23T08:54:57.378Z,26.20
2022-10-23T08:57:33.362Z,39.87
2022-10-23T09:00:02.925Z,29.83
2022-10-23T09:02:36.805Z,29.73
2022-10-23T09:05:04.840Z,30.67
2022-10-23T09:07:43.930Z,27.03
2022-10-23T09:10:27.281Z,30.77
2022-10-23T09:12:58.865Z,24.50
2022-10-23T09:15:31.529Z,36.20
2022-10-23T09:18:02.044Z,29.10
2022-10-23T09:20:34.323Z,35.73
2022-10-23T09:23:09.375Z,38.60
2022-10-23T09:25:40.062Z,37.63
2022-10-23T09:28:08.217Z,38.03
2022-10-23T09:30:38.422Z,31.37
2022-10-23T09:33:16.179Z,41.43
2022-10-23T09:35:55.303Z,39.50
2022-10-23T09:38:32.933Z,38.20
2022-10-23T09:41:04.126Z,57.07
2022-10-23T09:43:31.839Z,52.30
2022-10-23T09:46:01.534Z,42.20
2022-10-23T09:48:29.633Z,31.57
2022-10-23T09:50:59.136Z,34.90
2022-10-23T09:53:34.094Z,35.10
2022-10-23T09:56:04.802Z,31.10
2022-10-23T09:58:38.174Z,36.27
2022-10-23T10:01:06.262Z,29.07
2022-10-23T10:03:34.175Z,28.07
2022-10-23T10:06:03.791Z,29.33
2022-10-23T10:08:41.656Z,28.43
2022-10-23T10:11:16.239Z,29.80
2022-10-23T10:14:06.399Z,25.63
2022-10-23T10:16:43.750Z,25.43
2022-10-23T10:19:20.167Z,23.13
2022-10-23T10:21:54.582Z,23.80
2022-10-23T10:24:32.108Z,24.07
2022-10-23T10:27:08.471Z,26.50
2022-10-23T10:29:46.832Z,23.40
2022-10-23T10:32:32.200Z,22.07
2022-10-23T10:35:11.234Z,23.73
2022-10-23T10:37:51.906Z,26.97
2022-10-23T10:40:27.077Z,26.13
2022-10-23T10:43:15.039Z,22.63
2022-10-23T10:45:47.925Z,22.23
2022-10-23T10:48:26.536Z,19.67
2022-10-23T10:50:58.761Z,22.57
2022-10-23T10:53:32.345Z,20.57
2022-10-23T10:56:04.959Z,20.37
2022-10-23T10:58:39.660Z,21.13
2022-10-23T11:01:15.338Z,20.50
2022-10-23T11:03:51.875Z,18.33
2022-10-23T11:06:24.102Z,18.00
2022-10-23T11:08:58.133Z,16.03
2022-10-23T11:11:37.103Z,16.10
2022-10-23T11:14:05.085Z,17.80
2022-10-23T11:16:36.619Z,15.77
2022-10-23T11:19:11.525Z,14.40
2022-10-23T11:21:45.335Z,13.90
2022-10-23T11:24:40.756Z,14.40
2022-10-23T11:27:29.175Z,16.67
2022-10-23T11:30:22.829Z,15.67
2022-10-23T11:33:09.183Z,12.57
2022-10-23T11:35:53.230Z,12.77
2022-10-23T11:38:27.300Z,13.17
2022-10-23T11:40:58.568Z,14.33
2022-10-23T11:43:33.501Z,11.90
2022-10-23T11:46:13.473Z,12.90
2022-10-23T11:48:42.501Z,17.70
2022-10-23T11:51:29.182Z,14.67
2022-10-23T11:54:08.032Z,14.37
2022-10-23T11:56:35.878Z,15.00
2022-10-23T11:59:24.342Z,11.77
2022-10-23T12:01:54.971Z,11.87
2022-10-23T12:04:27.440Z,12.60
2022-10-23T12:06:57.836Z,11.70
2022-10-23T12:09:29.881Z,11.27
2022-10-23T12:12:17.884Z,11.93
2022-10-23T12:14:49.312Z,10.63
2022-10-23T12:17:35.802Z,10.63
2022-10-23T12:20:20.302Z,49.93
2022-10-23T12:22:59.802Z,16.43
2022-10-23T12:25:37.647Z,9.70
2022-10-23T12:28:13.697Z,9.10
2022-10-23T12:30:48.381Z,8.23
2022-10-23T12:33:23.863Z,11.27
2022-10-23T12:36:41.788Z,7.40
2022-10-23T12:39:31.296Z,10.57
2022-10-23T12:42:00.440Z,8.00
2022-10-23T12:44:28.965Z,9.40
2022-10-23T12:47:00.371Z,8.90
2022-10-23T12:49:31.533Z,11.23
2022-10-23T12:52:01.190Z,6.50
2022-10-23T12:54:32.063Z,8.87
2022-10-23T12:57:00.291Z,9.13
2022-10-23T12:59:33.434Z,7.17
2022-10-23T13:02:02.621Z,8.23
2022-10-23T13:04:32.347Z,8.13
2022-10-23T13:07:02.581Z,6.83
2022-10-23T13:09:32.883Z,8.40
2022-10-23T13:12:03.382Z,9.37
2022-10-23T13:14:34.036Z,7.87
2022-10-23T13:17:04.944Z,10.17
2022-10-23T13:19:33.082Z,7.60
2022-10-23T13:22:02.052Z,6.63
2022-10-23T13:24:31.228Z,7.33
2022-10-23T13:26:59.674Z,5.60
2022-10-23T13:29:30.093Z,8.93
2022-10-23T13:31:58.301Z,8.27
2022-10-23T13:34:29.366Z,7.50
2022-10-23T13:37:01.119Z,7.43
2022-10-23T13:39:31.422Z,5.60
2022-10-23T13:42:10.883Z,7.27
2022-10-23T13:44:38.723Z,5.80
2022-10-23T13:47:07.183Z,5.90
2022-10-23T13:49:36.908Z,8.13
2022-10-23T13:52:05.305Z,8.20
2022-10-23T13:54:33.321Z,7.50
2022-10-23T13:57:01.876Z,9.47
2022-10-23T13:59:30.363Z,6.70
2022-10-23T14:01:59.322Z,10.97
2022-10-23T14:04:27.383Z,7.97
2022-10-23T14:06:58.552Z,8.40
2022-10-23T14:09:26.397Z,8.07
2022-10-23T14:11:54.117Z,10.40
2022-10-23T14:14:21.835Z,6.80
2022-10-23T14:16:49.515Z,6.93
2022-10-23T14:19:17.218Z,6.30
2022-10-23T14:21:44.967Z,9.80
2022-10-23T14:24:14.728Z,7.50
2022-10-23T14:26:43.181Z,7.90
2022-10-23T14:29:18.393Z,8.13
2022-10-23T14:31:49.187Z,9.17
2022-10-23T14:34:16.959Z,13.80
2022-10-23T14:36:50.359Z,8.47
2022-10-23T14:39:20.122Z,6.77
2022-10-23T14:41:48.116Z,8.97
2022-10-23T14:44:15.933Z,9.63
2022-10-23T14:46:43.671Z,8.57
2022-10-23T14:49:11.316Z,8.37
2022-10-23T14:51:38.981Z,8.40
2022-10-23T14:54:09.130Z,5.87
2022-10-23T14:56:40.772Z,9.07
2022-10-23T14:59:10.657Z,10.13
2022-10-23T15:01:43.746Z,8.40
2022-10-23T15:04:15.702Z,9.10
2022-10-23T15:06:44.176Z,10.70
2022-10-23T15:09:12.332Z,7.10
2022-10-23T15:11:41.527Z,8.93
2022-10-23T15:14:09.330Z,8.50
2022-10-23T15:16:41.162Z,7.53
2022-10-23T15:19:13.488Z,8.77
2022-10-23T15:21:45.139Z,10.90
2022-10-23T15:24:12.918Z,9.13
2022-10-23T15:26:43.252Z,8.20
2022-10-23T15:29:12.218Z,12.67
2022-10-23T15:31:49.019Z,9.73
2022-10-23T15:34:19.099Z,8.37
2022-10-23T15:36:47.936Z,11.20
2022-10-23T15:39:19.168Z,11.30
2022-10-23T15:41:52.510Z,15.10
2022-10-23T15:44:22.150Z,14.93
2022-10-23T15:46:50.317Z,9.80
2022-10-23T15:49:18.621Z,9.30
2022-10-23T15:51:46.612Z,33.50
2022-10-23T15:54:18.394Z,12.77
2022-10-23T15:56:46.821Z,10.83
2022-10-23T15:59:16.214Z,9.20
2022-10-23T16:01:44.765Z,13.83
2022-10-23T16:04:12.656Z,13.80
2022-10-23T16:06:40.693Z,21.13
2022-10-23T16:09:08.460Z,9.03
2022-10-23T16:11:38.499Z,11.93
2022-10-23T16:14:08.289Z,13.27
2022-10-23T16:16:37.509Z,9.93
2022-10-23T16:19:06.139Z,11.80
2022-10-23T16:21:35.948Z,12.73
2022-10-23T16:24:05.638Z,9.17
2022-10-23T16:26:33.531Z,10.57
2022-10-23T16:29:03.474Z,13.27
2022-10-23T16:31:31.269Z,14.73
2022-10-23T16:34:01.799Z,10.80
2022-10-23T16:36:30.403Z,10.43
2022-10-23T16:38:58.111Z,13.20
2022-10-23T16:41:25.867Z,15.90
2022-10-23T16:43:53.718Z,6.87
2022-10-23T16:46:23.248Z,13.50
2022-10-23T16:48:52.277Z,9.83
2022-10-23T16:51:23.601Z,10.77
2022-10-23T16:53:51.728Z,11.27
2022-10-23T16:56:23.535Z,33.40
2022-10-23T16:58:51.625Z,40.40
2022-10-23T17:01:26.065Z,13.83
2022-10-23T17:03:55.310Z,10.90
2022-10-23T17:06:25.787Z,11.50
2022-10-23T17:08:54.367Z,10.77
2022-10-23T17:11:24.185Z,13.17
2022-10-23T17:13:57.225Z,14.53
2022-10-23T17:16:28.830Z,13.00
2022-10-23T17:18:57.390Z,10.07
2022-10-23T17:21:26.533Z,9.30
2022-10-23T17:23:54.486Z,12.23
2022-10-23T17:26:23.532Z,15.27
2022-10-23T17:28:51.301Z,10.60
2022-10-23T17:31:22.274Z,10.80
2022-10-23T17:33:51.973Z,12.83
2022-10-23T17:36:21.579Z,12.93
2022-10-23T17:38:50.937Z,9.97
2022-10-23T17:41:21.156Z,10.30
2022-10-23T17:43:49.085Z,9.23
2022-10-23T17:46:18.649Z,16.83
2022-10-23T17:48:46.417Z,10.10
2022-10-23T17:51:16.594Z,12.57
2022-10-23T17:53:46.750Z,11.07
2022-10-23T17:56:20.040Z,13.63
2022-10-23T17:58:47.868Z,16.20
2022-10-23T18:01:18.251Z,9.90
2022-10-23T18:03:46.111Z,12.07
2022-10-23T18:06:16.991Z,9.83
2022-10-23T18:08:45.656Z,12.30
2022-10-23T18:11:17.414Z,11.53
2022-10-23T18:13:45.334Z,11.20
2022-10-23T18:16:14.098Z,11.37
2022-10-23T18:18:43.640Z,9.13
2022-10-23T18:21:11.754Z,13.97
2022-10-23T18:23:39.512Z,12.00
2022-10-23T18:26:07.993Z,12.73
2022-10-23T18:28:37.113Z,9.97
2022-10-23T18:31:09.023Z,13.03
2022-10-23T18:33:36.710Z,12.43
2022-10-23T18:36:04.937Z,10.80
2022-10-23T18:38:32.613Z,10.17
2022-10-23T18:41:00.290Z,10.20
2022-10-23T18:43:42.502Z,10.67
2022-10-23T18:46:12.886Z,11.77
2022-10-23T18:48:40.988Z,8.77
2022-10-23T18:51:15.766Z,12.00
2022-10-23T18:53:46.563Z,10.33
2022-10-23T18:56:15.057Z,13.60
2022-10-23T18:58:43.342Z,9.23
2022-10-23T19:01:12.493Z,12.40
2022-10-23T19:03:40.287Z,11.43
2022-10-23T19:06:08.642Z,9.50
2022-10-23T19:08:37.793Z,11.77
2022-10-23T19:11:06.510Z,13.20
2022-10-23T19:13:38.957Z,14.53
2022-10-23T19:16:09.873Z,9.73
2022-10-23T19:18:40.647Z,11.43
2022-10-23T19:21:08.672Z,11.10
2022-10-23T19:23:37.312Z,15.33
2022-10-23T19:26:08.687Z,8.70
2022-10-23T19:28:38.024Z,13.10
2022-10-23T19:31:07.585Z,8.87
2022-10-23T19:33:36.142Z,11.23
2022-10-23T19:36:08.825Z,12.73
2022-10-23T19:38:40.271Z,11.90
2022-10-23T19:41:08.370Z,12.53
2022-10-23T19:43:37.652Z,10.03
2022-10-23T19:46:09.487Z,10.50
2022-10-23T19:48:42.440Z,11.00
2022-10-23T19:51:12.850Z,10.43
2022-10-23T19:53:41.943Z,11.37
2022-10-23T19:56:11.620Z,8.37
2022-10-23T19:58:39.838Z,9.10
2022-10-23T20:01:09.293Z,7.83
2022-10-23T20:03:37.073Z,13.90
2022-10-23T20:06:05.179Z,12.30
2022-10-23T20:08:35.169Z,8.33
2022-10-23T20:11:03.135Z,11.27
2022-10-23T20:13:30.959Z,9.07
2022-10-23T20:15:58.682Z,12.90
2022-10-23T20:18:27.396Z,8.33
2022-10-23T20:20:55.246Z,8.00
2022-10-23T20:23:22.965Z,12.23
2022-10-23T20:25:52.021Z,8.90
2022-10-23T20:28:21.681Z,11.97
2022-10-23T20:30:49.411Z,9.20
2022-10-23T20:33:17.114Z,7.27
2022-10-23T20:35:44.942Z,8.83
2022-10-23T20:38:12.687Z,11.43
2022-10-23T20:40:40.398Z,9.97
2022-10-23T20:43:09.475Z,8.00
2022-10-23T20:45:37.566Z,9.23
2022-10-23T20:48:06.150Z,9.17
2022-10-23T20:50:35.664Z,7.73
2022-10-23T20:53:03.692Z,10.27
2022-10-23T20:55:31.448Z,8.37
2022-10-23T20:57:59.365Z,7.70
2022-10-23T21:00:28.414Z,7.17
2022-10-23T21:03:01.722Z,10.83
2022-10-23T21:05:29.771Z,9.80
2022-10-23T21:07:57.469Z,9.93
2022-10-23T21:10:25.317Z,8.43
2022-10-23T21:12:53.045Z,10.23
2022-10-23T21:15:21.054Z,8.27
2022-10-23T21:17:52.252Z,11.33
2022-10-23T21:20:20.133Z,15.87
2022-10-23T21:22:47.878Z,10.80
2022-10-23T21:25:18.568Z,8.37
2022-10-23T21:27:46.607Z,11.43
2022-10-23T21:30:14.756Z,10.77
2022-10-23T21:32:42.446Z,9.43
2022-10-23T21:35:12.027Z,8.80
2022-10-23T21:37:39.716Z,8.83
2022-10-23T21:40:09.149Z,8.87
2022-10-23T21:42:36.844Z,8.63
2022-10-23T21:45:05.095Z,9.03
2022-10-23T21:47:34.798Z,8.13
2022-10-23T21:50:02.511Z,7.53
2022-10-23T21:52:31.859Z,5.93
2022-10-23T21:54:59.579Z,11.57
2022-10-23T21:57:30.992Z,10.07
2022-10-23T21:59:58.694Z,6.33
2022-10-23T22:02:26.633Z,7.13
2022-10-23T22:04:54.486Z,8.10
2022-10-23T22:07:22.229Z,8.93
2022-10-23T22:09:51.384Z,8.13
2022-10-23T22:12:19.073Z,8.07
2022-10-23T22:14:46.944Z,7.87
2022-10-23T22:17:14.638Z,6.00
2022-10-23T22:19:42.476Z,9.17
2022-10-23T22:22:10.242Z,6.70
2022-10-23T22:24:38.176Z,6.03
2022-10-23T22:27:07.298Z,5.77
2022-10-23T22:29:35.054Z,9.17
2022-10-23T22:32:02.736Z,7.97
2022-10-23T22:34:52.043Z,5.97
2022-10-23T22:37:19.212Z,6.47
2022-10-23T22:39:47.108Z,5.90
2022-10-23T22:42:16.175Z,7.17
2022-10-23T22:44:43.914Z,10.13
2022-10-23T22:47:11.676Z,5.33
2022-10-23T22:49:39.424Z,7.27
2022-10-23T22:52:07.155Z,6.37
2022-10-23T22:54:35.033Z,5.80
2022-10-23T22:57:02.744Z,7.17
2022-10-23T22:59:31.789Z,7.70
2022-10-23T23:01:59.510Z,8.03
2022-10-23T23:04:43.109Z,6.13
2022-10-23T23:07:13.353Z,7.80
2022-10-23T23:09:42.896Z,8.63
2022-10-23T23:12:12.374Z,6.10
2022-10-23T23:14:42.294Z,5.90
2022-10-23T23:17:10.270Z,6.27
2022-10-23T23:19:38.090Z,8.07
2022-10-23T23:22:06.288Z,5.27
2022-10-23T23:24:34.272Z,4.60
2022-10-23T23:27:02.100Z,5.73
2022-10-23T23:29:29.862Z,5.07
2022-10-23T23:31:59.029Z,5.90
2022-10-23T23:34:27.235Z,5.77
2022-10-23T23:36:54.959Z,5.83
2022-10-23T23:39:22.672Z,6.23
2022-10-23T23:41:50.409Z,5.37
2022-10-23T23:44:18.115Z,4.73
2022-10-23T23:46:45.820Z,5.33
2022-10-23T23:49:14.958Z,4.27
2022-10-23T23:51:42.683Z,4.33
2022-10-23T23:54:10.382Z,4.77
2022-10-23T23:56:38.108Z,9.23
2022-10-23T23:59:05.809Z,6.80
